sensor_id;sensor_type;location;lat;lon;timestamp;P1;durP1;ratioP1;P2;durP2;ratioP2
58354;SDS011;44160;49.080;19.302;2022-09-09T00:00:35;4.32;;;2.90;;
58354;SDS011;44160;49.080;19.302;2022-09-09T00:03:23;3.55;;;2.60;;
58354;SDS011;44160;49.080;19.302;2022-09-09T00:08:26;4.05;;;2.88;;
58354;SDS011;44160;49.080;19.302;2022-09-09T00:11:00;3.35;;;2.67;;
58354;SDS011;44160;49.080;19.302;2022-09-09T00:13:34;3.70;;;2.90;;
58354;SDS011;44160;49.080;19.302;2022-09-09T00:21:30;3.15;;;2.70;;
58354;SDS011;44160;49.080;19.302;2022-09-09T00:24:07;4.75;;;2.40;;
58354;SDS011;44160;49.080;19.302;2022-09-09T00:26:40;2.78;;;2.35;;
58354;SDS011;44160;49.080;19.302;2022-09-09T00:31:46;2.55;;;2.35;;
58354;SDS011;44160;49.080;19.302;2022-09-09T00:34:13;2.95;;;2.25;;
58354;SDS011;44160;49.080;19.302;2022-09-09T00:36:41;2.22;;;1.92;;
58354;SDS011;44160;49.080;19.302;2022-09-09T00:39:22;2.88;;;1.85;;
58354;SDS011;44160;49.080;19.302;2022-09-09T00:52:40;1.73;;;1.42;;
58354;SDS011;44160;49.080;19.302;2022-09-09T00:57:59;2.38;;;1.48;;
58354;SDS011;44160;49.080;19.302;2022-09-09T01:00:29;1.45;;;1.23;;
58354;SDS011;44160;49.080;19.302;2022-09-09T01:03:02;1.60;;;1.40;;
58354;SDS011;44160;49.080;19.302;2022-09-09T01:07:58;1.40;;;1.20;;
58354;SDS011;44160;49.080;19.302;2022-09-09T01:13:33;1.38;;;1.25;;
58354;SDS011;44160;49.080;19.302;2022-09-09T01:16:00;3.88;;;1.50;;
58354;SDS011;44160;49.080;19.302;2022-09-09T01:18:33;2.03;;;1.30;;
58354;SDS011;44160;49.080;19.302;2022-09-09T01:23:30;1.20;;;1.10;;
58354;SDS011;44160;49.080;19.302;2022-09-09T01:28:48;5.55;;;1.55;;
58354;SDS011;44160;49.080;19.302;2022-09-09T01:31:31;3.28;;;1.45;;
58354;SDS011;44160;49.080;19.302;2022-09-09T01:33:58;2.22;;;1.33;;
58354;SDS011;44160;49.080;19.302;2022-09-09T01:39:13;2.00;;;1.15;;
58354;SDS011;44160;49.080;19.302;2022-09-09T01:41:39;1.25;;;1.15;;
58354;SDS011;44160;49.080;19.302;2022-09-09T01:44:06;1.50;;;1.30;;
58354;SDS011;44160;49.080;19.302;2022-09-09T01:46:33;3.35;;;1.60;;
58354;SDS011;44160;49.080;19.302;2022-09-09T01:49:05;3.15;;;1.42;;
58354;SDS011;44160;49.080;19.302;2022-09-09T01:51:36;1.35;;;1.25;;
58354;SDS011;44160;49.080;19.302;2022-09-09T01:54:04;4.85;;;1.60;;
58354;SDS011;44160;49.080;19.302;2022-09-09T02:02:18;2.25;;;1.63;;
58354;SDS011;44160;49.080;19.302;2022-09-09T02:04:47;4.20;;;1.70;;
58354;SDS011;44160;49.080;19.302;2022-09-09T02:09:53;1.80;;;1.52;;
58354;SDS011;44160;49.080;19.302;2022-09-09T02:12:23;2.67;;;1.60;;
58354;SDS011;44160;49.080;19.302;2022-09-09T02:14:51;1.55;;;1.45;;
58354;SDS011;44160;49.080;19.302;2022-09-09T02:17:29;2.63;;;1.58;;
58354;SDS011;44160;49.080;19.302;2022-09-09T02:20:05;2.53;;;1.98;;
58354;SDS011;44160;49.080;19.302;2022-09-09T02:22:36;1.88;;;1.50;;
58354;SDS011;44160;49.080;19.302;2022-09-09T02:25:05;2.63;;;1.88;;
58354;SDS011;44160;49.080;19.302;2022-09-09T02:27:31;2.40;;;1.30;;
58354;SDS011;44160;49.080;19.302;2022-09-09T02:29:57;1.67;;;1.50;;
58354;SDS011;44160;49.080;19.302;2022-09-09T02:32:27;2.13;;;1.60;;
58354;SDS011;44160;49.080;19.302;2022-09-09T02:35:00;3.88;;;1.60;;
58354;SDS011;44160;49.080;19.302;2022-09-09T02:37:29;1.42;;;1.33;;
58354;SDS011;44160;49.080;19.302;2022-09-09T02:39:58;1.90;;;1.70;;
58354;SDS011;44160;49.080;19.302;2022-09-09T02:42:24;2.60;;;1.50;;
58354;SDS011;44160;49.080;19.302;2022-09-09T02:44:50;1.42;;;1.33;;
58354;SDS011;44160;49.080;19.302;2022-09-09T02:47:20;2.67;;;1.63;;
58354;SDS011;44160;49.080;19.302;2022-09-09T02:52:18;3.20;;;1.50;;
58354;SDS011;44160;49.080;19.302;2022-09-09T02:54:44;1.77;;;1.60;;
58354;SDS011;44160;49.080;19.302;2022-09-09T02:57:11;2.20;;;1.80;;
58354;SDS011;44160;49.080;19.302;2022-09-09T02:59:38;1.70;;;1.60;;
58354;SDS011;44160;49.080;19.302;2022-09-09T03:02:04;2.00;;;1.45;;
58354;SDS011;44160;49.080;19.302;2022-09-09T03:04:31;1.40;;;1.30;;
58354;SDS011;44160;49.080;19.302;2022-09-09T03:06:57;2.10;;;1.70;;
58354;SDS011;44160;49.080;19.302;2022-09-09T03:09:33;1.70;;;1.52;;
58354;SDS011;44160;49.080;19.302;2022-09-09T03:11:59;1.85;;;1.63;;
58354;SDS011;44160;49.080;19.302;2022-09-09T03:14:29;1.80;;;1.45;;
58354;SDS011;44160;49.080;19.302;2022-09-09T03:16:56;2.40;;;1.60;;
58354;SDS011;44160;49.080;19.302;2022-09-09T03:19:25;3.58;;;1.60;;
58354;SDS011;44160;49.080;19.302;2022-09-09T03:21:55;2.53;;;1.65;;
58354;SDS011;44160;49.080;19.302;2022-09-09T03:24:22;3.10;;;1.80;;
58354;SDS011;44160;49.080;19.302;2022-09-09T03:27:00;3.70;;;1.75;;
58354;SDS011;44160;49.080;19.302;2022-09-09T03:29:28;3.25;;;1.40;;
58354;SDS011;44160;49.080;19.302;2022-09-09T03:31:54;1.98;;;1.60;;
58354;SDS011;44160;49.080;19.302;2022-09-09T03:34:21;4.55;;;1.55;;
58354;SDS011;44160;49.080;19.302;2022-09-09T03:36:47;2.60;;;1.90;;
58354;SDS011;44160;49.080;19.302;2022-09-09T03:39:14;2.00;;;1.80;;
58354;SDS011;44160;49.080;19.302;2022-09-09T03:41:40;3.25;;;1.85;;
58354;SDS011;44160;49.080;19.302;2022-09-09T03:44:06;5.95;;;3.45;;
58354;SDS011;44160;49.080;19.302;2022-09-09T03:46:32;5.68;;;3.42;;
58354;SDS011;44160;49.080;19.302;2022-09-09T03:49:00;3.80;;;2.78;;
58354;SDS011;44160;49.080;19.302;2022-09-09T03:51:27;2.88;;;2.35;;
58354;SDS011;44160;49.080;19.302;2022-09-09T03:53:53;5.32;;;2.58;;
58354;SDS011;44160;49.080;19.302;2022-09-09T03:56:23;7.38;;;3.28;;
58354;SDS011;44160;49.080;19.302;2022-09-09T03:58:49;4.22;;;2.97;;
58354;SDS011;44160;49.080;19.302;2022-09-09T04:01:15;4.22;;;2.67;;
58354;SDS011;44160;49.080;19.302;2022-09-09T04:03:48;2.92;;;2.13;;
58354;SDS011;44160;49.080;19.302;2022-09-09T04:06:23;2.15;;;1.92;;
58354;SDS011;44160;49.080;19.302;2022-09-09T04:08:49;3.42;;;2.10;;
58354;SDS011;44160;49.080;19.302;2022-09-09T04:11:17;3.63;;;2.20;;
58354;SDS011;44160;49.080;19.302;2022-09-09T04:13:43;2.60;;;2.05;;
58354;SDS011;44160;49.080;19.302;2022-09-09T04:16:10;2.28;;;1.83;;
58354;SDS011;44160;49.080;19.302;2022-09-09T04:18:37;2.03;;;1.80;;
58354;SDS011;44160;49.080;19.302;2022-09-09T04:21:04;1.90;;;1.70;;
58354;SDS011;44160;49.080;19.302;2022-09-09T04:23:31;3.25;;;2.00;;
58354;SDS011;44160;49.080;19.302;2022-09-09T04:25:59;2.47;;;1.73;;
58354;SDS011;44160;49.080;19.302;2022-09-09T04:28:26;4.40;;;2.00;;
58354;SDS011;44160;49.080;19.302;2022-09-09T04:30:53;5.85;;;1.80;;
58354;SDS011;44160;49.080;19.302;2022-09-09T04:33:19;2.10;;;1.90;;
58354;SDS011;44160;49.080;19.302;2022-09-09T04:35:46;3.53;;;2.85;;
58354;SDS011;44160;49.080;19.302;2022-09-09T04:38:13;3.78;;;1.80;;
58354;SDS011;44160;49.080;19.302;2022-09-09T04:40:43;3.03;;;1.90;;
58354;SDS011;44160;49.080;19.302;2022-09-09T04:43:09;2.83;;;1.65;;
58354;SDS011;44160;49.080;19.302;2022-09-09T04:45:35;1.45;;;1.35;;
58354;SDS011;44160;49.080;19.302;2022-09-09T04:48:02;1.70;;;1.40;;
58354;SDS011;44160;49.080;19.302;2022-09-09T04:50:28;2.35;;;1.65;;
58354;SDS011;44160;49.080;19.302;2022-09-09T04:52:54;2.33;;;1.70;;
58354;SDS011;44160;49.080;19.302;2022-09-09T04:55:21;1.85;;;1.50;;
58354;SDS011;44160;49.080;19.302;2022-09-09T04:57:50;2.22;;;1.95;;
58354;SDS011;44160;49.080;19.302;2022-09-09T05:00:19;2.00;;;1.80;;
58354;SDS011;44160;49.080;19.302;2022-09-09T05:02:45;2.25;;;2.05;;
58354;SDS011;44160;49.080;19.302;2022-09-09T05:05:12;2.20;;;1.75;;
58354;SDS011;44160;49.080;19.302;2022-09-09T05:07:38;2.60;;;1.88;;
58354;SDS011;44160;49.080;19.302;2022-09-09T05:10:04;2.00;;;1.80;;
58354;SDS011;44160;49.080;19.302;2022-09-09T05:12:31;5.45;;;1.90;;
58354;SDS011;44160;49.080;19.302;2022-09-09T05:14:57;2.85;;;1.67;;
58354;SDS011;44160;49.080;19.302;2022-09-09T05:17:23;3.78;;;1.73;;
58354;SDS011;44160;49.080;19.302;2022-09-09T05:19:49;3.42;;;3.05;;
58354;SDS011;44160;49.080;19.302;2022-09-09T05:22:19;7.53;;;2.53;;
58354;SDS011;44160;49.080;19.302;2022-09-09T05:24:45;4.40;;;2.30;;
58354;SDS011;44160;49.080;19.302;2022-09-09T05:27:11;3.80;;;1.90;;
58354;SDS011;44160;49.080;19.302;2022-09-09T05:29:37;4.32;;;2.63;;
58354;SDS011;44160;49.080;19.302;2022-09-09T05:32:04;2.92;;;1.92;;
58354;SDS011;44160;49.080;19.302;2022-09-09T05:34:30;1.88;;;1.70;;
58354;SDS011;44160;49.080;19.302;2022-09-09T05:36:56;2.10;;;1.90;;
58354;SDS011;44160;49.080;19.302;2022-09-09T05:39:22;2.30;;;1.90;;
58354;SDS011;44160;49.080;19.302;2022-09-09T05:41:48;2.25;;;1.90;;
58354;SDS011;44160;49.080;19.302;2022-09-09T05:44:14;3.58;;;1.80;;
58354;SDS011;44160;49.080;19.302;2022-09-09T05:46:40;3.38;;;1.67;;
58354;SDS011;44160;49.080;19.302;2022-09-09T05:49:06;2.42;;;2.20;;
58354;SDS011;44160;49.080;19.302;2022-09-09T05:51:33;4.22;;;2.80;;
58354;SDS011;44160;49.080;19.302;2022-09-09T05:53:59;1.63;;;1.52;;
58354;SDS011;44160;49.080;19.302;2022-09-09T05:56:26;1.73;;;1.42;;
58354;SDS011;44160;49.080;19.302;2022-09-09T05:58:52;1.92;;;1.60;;
58354;SDS011;44160;49.080;19.302;2022-09-09T06:01:20;2.20;;;1.58;;
58354;SDS011;44160;49.080;19.302;2022-09-09T06:03:46;2.15;;;1.20;;
58354;SDS011;44160;49.080;19.302;2022-09-09T06:06:14;4.25;;;1.55;;
58354;SDS011;44160;49.080;19.302;2022-09-09T06:08:41;3.92;;;1.20;;
58354;SDS011;44160;49.080;19.302;2022-09-09T06:11:13;1.25;;;0.98;;
58354;SDS011;44160;49.080;19.302;2022-09-09T06:13:40;3.35;;;1.00;;
58354;SDS011;44160;49.080;19.302;2022-09-09T06:16:08;1.23;;;1.00;;
58354;SDS011;44160;49.080;19.302;2022-09-09T06:18:34;1.63;;;1.00;;
58354;SDS011;44160;49.080;19.302;2022-09-09T06:21:08;1.40;;;1.00;;
58354;SDS011;44160;49.080;19.302;2022-09-09T06:23:36;0.93;;;0.90;;
58354;SDS011;44160;49.080;19.302;2022-09-09T06:28:34;1.10;;;0.98;;
58354;SDS011;44160;49.080;19.302;2022-09-09T06:31:01;1.00;;;0.80;;
58354;SDS011;44160;49.080;19.302;2022-09-09T06:33:32;4.50;;;1.10;;
58354;SDS011;44160;49.080;19.302;2022-09-09T06:38:26;4.90;;;2.38;;
58354;SDS011;44160;49.080;19.302;2022-09-09T06:40:57;1.73;;;1.30;;
58354;SDS011;44160;49.080;19.302;2022-09-09T06:43:26;2.33;;;1.58;;
58354;SDS011;44160;49.080;19.302;2022-09-09T06:46:05;3.83;;;1.30;;
58354;SDS011;44160;49.080;19.302;2022-09-09T06:48:33;3.08;;;1.20;;
58354;SDS011;44160;49.080;19.302;2022-09-09T06:51:03;1.55;;;0.95;;
58354;SDS011;44160;49.080;19.302;2022-09-09T06:53:29;1.30;;;1.20;;
58354;SDS011;44160;49.080;19.302;2022-09-09T06:55:58;1.33;;;1.15;;
58354;SDS011;44160;49.080;19.302;2022-09-09T06:58:25;2.58;;;1.10;;
58354;SDS011;44160;49.080;19.302;2022-09-09T07:00:51;1.55;;;0.95;;
58354;SDS011;44160;49.080;19.302;2022-09-09T07:03:20;1.52;;;1.27;;
58354;SDS011;44160;49.080;19.302;2022-09-09T07:05:53;2.83;;;1.60;;
58354;SDS011;44160;49.080;19.302;2022-09-09T07:08:20;2.15;;;1.63;;
58354;SDS011;44160;49.080;19.302;2022-09-09T07:10:46;4.70;;;4.20;;
58354;SDS011;44160;49.080;19.302;2022-09-09T07:13:12;3.10;;;1.60;;
58354;SDS011;44160;49.080;19.302;2022-09-09T07:15:39;1.40;;;1.10;;
58354;SDS011;44160;49.080;19.302;2022-09-09T07:18:08;1.58;;;1.42;;
58354;SDS011;44160;49.080;19.302;2022-09-09T07:20:35;5.03;;;1.23;;
58354;SDS011;44160;49.080;19.302;2022-09-09T07:23:01;3.75;;;1.30;;
58354;SDS011;44160;49.080;19.302;2022-09-09T07:25:27;3.03;;;1.20;;
58354;SDS011;44160;49.080;19.302;2022-09-09T07:27:55;2.50;;;1.15;;
58354;SDS011;44160;49.080;19.302;2022-09-09T07:30:22;3.92;;;1.20;;
58354;SDS011;44160;49.080;19.302;2022-09-09T07:32:53;1.40;;;1.23;;
58354;SDS011;44160;49.080;19.302;2022-09-09T07:35:22;1.95;;;1.45;;
58354;SDS011;44160;49.080;19.302;2022-09-09T07:37:48;5.13;;;1.23;;
58354;SDS011;44160;49.080;19.302;2022-09-09T07:40:14;2.17;;;1.52;;
58354;SDS011;44160;49.080;19.302;2022-09-09T07:42:40;2.35;;;1.33;;
58354;SDS011;44160;49.080;19.302;2022-09-09T07:45:09;5.18;;;1.80;;
58354;SDS011;44160;49.080;19.302;2022-09-09T07:47:35;5.57;;;2.10;;
58354;SDS011;44160;49.080;19.302;2022-09-09T07:50:01;3.58;;;2.10;;
58354;SDS011;44160;49.080;19.302;2022-09-09T07:52:36;2.80;;;1.73;;
58354;SDS011;44160;49.080;19.302;2022-09-09T07:55:02;3.58;;;1.48;;
58354;SDS011;44160;49.080;19.302;2022-09-09T07:57:29;2.72;;;1.70;;
58354;SDS011;44160;49.080;19.302;2022-09-09T07:59:56;4.05;;;1.80;;
58354;SDS011;44160;49.080;19.302;2022-09-09T08:02:23;3.58;;;1.50;;
58354;SDS011;44160;49.080;19.302;2022-09-09T08:04:50;3.20;;;1.25;;
58354;SDS011;44160;49.080;19.302;2022-09-09T08:07:17;5.80;;;2.20;;
58354;SDS011;44160;49.080;19.302;2022-09-09T08:09:43;1.58;;;1.00;;
58354;SDS011;44160;49.080;19.302;2022-09-09T08:12:09;4.05;;;1.48;;
58354;SDS011;44160;49.080;19.302;2022-09-09T08:14:35;3.13;;;1.45;;
58354;SDS011;44160;49.080;19.302;2022-09-09T08:17:02;1.10;;;0.90;;
58354;SDS011;44160;49.080;19.302;2022-09-09T08:19:28;2.70;;;1.08;;
58354;SDS011;44160;49.080;19.302;2022-09-09T08:22:00;1.35;;;1.10;;
58354;SDS011;44160;49.080;19.302;2022-09-09T08:24:29;1.50;;;1.10;;
58354;SDS011;44160;49.080;19.302;2022-09-09T08:26:58;3.10;;;1.00;;
58354;SDS011;44160;49.080;19.302;2022-09-09T08:29:27;2.20;;;0.70;;
58354;SDS011;44160;49.080;19.302;2022-09-09T08:31:57;2.33;;;1.08;;
58354;SDS011;44160;49.080;19.302;2022-09-09T08:34:24;1.20;;;1.10;;
58354;SDS011;44160;49.080;19.302;2022-09-09T08:36:55;0.88;;;0.70;;
58354;SDS011;44160;49.080;19.302;2022-09-09T08:39:21;1.20;;;0.80;;
58354;SDS011;44160;49.080;19.302;2022-09-09T08:47:15;1.60;;;1.05;;
58354;SDS011;44160;49.080;19.302;2022-09-09T08:52:28;4.78;;;1.25;;
58354;SDS011;44160;49.080;19.302;2022-09-09T08:55:01;1.58;;;1.00;;
58354;SDS011;44160;49.080;19.302;2022-09-09T08:57:28;1.83;;;1.10;;
58354;SDS011;44160;49.080;19.302;2022-09-09T08:59:56;1.60;;;1.00;;
58354;SDS011;44160;49.080;19.302;2022-09-09T09:12:40;1.23;;;0.70;;
58354;SDS011;44160;49.080;19.302;2022-09-09T09:15:14;2.58;;;0.73;;
58354;SDS011;44160;49.080;19.302;2022-09-09T09:17:42;1.83;;;0.57;;
58354;SDS011;44160;49.080;19.302;2022-09-09T09:20:12;1.08;;;0.95;;
58354;SDS011;44160;49.080;19.302;2022-09-09T09:22:50;0.82;;;0.70;;
58354;SDS011;44160;49.080;19.302;2022-09-09T09:25:20;1.05;;;0.70;;
58354;SDS011;44160;49.080;19.302;2022-09-09T09:30:29;0.90;;;0.60;;
58354;SDS011;44160;49.080;19.302;2022-09-09T09:32:59;0.55;;;0.55;;
58354;SDS011;44160;49.080;19.302;2022-09-09T09:35:27;0.98;;;0.80;;
58354;SDS011;44160;49.080;19.302;2022-09-09T09:37:53;1.60;;;0.88;;
58354;SDS011;44160;49.080;19.302;2022-09-09T09:40:20;1.75;;;0.68;;
58354;SDS011;44160;49.080;19.302;2022-09-09T09:48:03;0.70;;;0.47;;
58354;SDS011;44160;49.080;19.302;2022-09-09T09:50:32;2.72;;;1.25;;
58354;SDS011;44160;49.080;19.302;2022-09-09T09:53:26;0.95;;;0.55;;
58354;SDS011;44160;49.080;19.302;2022-09-09T09:56:27;0.70;;;0.50;;
58354;SDS011;44160;49.080;19.302;2022-09-09T09:58:57;1.75;;;0.50;;
58354;SDS011;44160;49.080;19.302;2022-09-09T10:01:32;0.50;;;0.50;;
58354;SDS011;44160;49.080;19.302;2022-09-09T10:03:59;1.63;;;0.63;;
58354;SDS011;44160;49.080;19.302;2022-09-09T10:06:33;1.02;;;0.40;;
58354;SDS011;44160;49.080;19.302;2022-09-09T10:08:59;0.73;;;0.60;;
58354;SDS011;44160;49.080;19.302;2022-09-09T10:14:20;0.82;;;0.60;;
58354;SDS011;44160;49.080;19.302;2022-09-09T10:19:38;0.93;;;0.52;;
58354;SDS011;44160;49.080;19.302;2022-09-09T10:27:18;0.63;;;0.60;;
58354;SDS011;44160;49.080;19.302;2022-09-09T10:38:04;0.85;;;0.80;;
58354;SDS011;44160;49.080;19.302;2022-09-09T10:48:30;1.20;;;0.60;;
58354;SDS011;44160;49.080;19.302;2022-09-09T10:51:02;2.67;;;0.70;;
58354;SDS011;44160;49.080;19.302;2022-09-09T10:56:22;1.60;;;0.70;;
58354;SDS011;44160;49.080;19.302;2022-09-09T11:01:18;0.90;;;0.80;;
58354;SDS011;44160;49.080;19.302;2022-09-09T11:03:54;2.67;;;0.90;;
58354;SDS011;44160;49.080;19.302;2022-09-09T11:09:16;0.63;;;0.63;;
58354;SDS011;44160;49.080;19.302;2022-09-09T11:11:54;1.13;;;0.85;;
58354;SDS011;44160;49.080;19.302;2022-09-09T11:14:34;1.20;;;0.77;;
58354;SDS011;44160;49.080;19.302;2022-09-09T11:19:35;1.42;;;0.90;;
58354;SDS011;44160;49.080;19.302;2022-09-09T11:22:03;1.15;;;0.70;;
58354;SDS011;44160;49.080;19.302;2022-09-09T11:24:36;4.40;;;0.60;;
58354;SDS011;44160;49.080;19.302;2022-09-09T11:32:12;1.30;;;0.90;;
58354;SDS011;44160;49.080;19.302;2022-09-09T11:42:42;2.35;;;0.70;;
58354;SDS011;44160;49.080;19.302;2022-09-09T11:45:15;4.38;;;1.05;;
58354;SDS011;44160;49.080;19.302;2022-09-09T11:47:52;0.77;;;0.73;;
58354;SDS011;44160;49.080;19.302;2022-09-09T11:52:46;1.13;;;0.82;;
58354;SDS011;44160;49.080;19.302;2022-09-09T11:55:34;1.13;;;0.75;;
58354;SDS011;44160;49.080;19.302;2022-09-09T11:58:05;1.08;;;0.68;;
58354;SDS011;44160;49.080;19.302;2022-09-09T12:00:42;1.10;;;0.80;;
58354;SDS011;44160;49.080;19.302;2022-09-09T12:06:10;2.08;;;0.98;;
58354;SDS011;44160;49.080;19.302;2022-09-09T12:11:41;1.20;;;0.90;;
58354;SDS011;44160;49.080;19.302;2022-09-09T12:14:20;1.35;;;0.80;;
58354;SDS011;44160;49.080;19.302;2022-09-09T12:16:46;0.90;;;0.73;;
58354;SDS011;44160;49.080;19.302;2022-09-09T12:19:18;0.88;;;0.77;;
58354;SDS011;44160;49.080;19.302;2022-09-09T12:30:09;2.45;;;0.70;;
58354;SDS011;44160;49.080;19.302;2022-09-09T12:32:36;0.68;;;0.68;;
58354;SDS011;44160;49.080;19.302;2022-09-09T12:37:58;0.80;;;0.80;;
58354;SDS011;44160;49.080;19.302;2022-09-09T12:42:52;0.80;;;0.73;;
58354;SDS011;44160;49.080;19.302;2022-09-09T12:52:47;1.00;;;0.77;;
58354;SDS011;44160;49.080;19.302;2022-09-09T12:55:19;0.93;;;0.70;;
58354;SDS011;44160;49.080;19.302;2022-09-09T12:57:46;1.38;;;0.80;;
58354;SDS011;44160;49.080;19.302;2022-09-09T13:00:16;1.13;;;0.70;;
58354;SDS011;44160;49.080;19.302;2022-09-09T13:02:46;1.23;;;0.90;;
58354;SDS011;44160;49.080;19.302;2022-09-09T13:05:20;1.20;;;0.80;;
58354;SDS011;44160;49.080;19.302;2022-09-09T13:07:46;1.40;;;0.80;;
58354;SDS011;44160;49.080;19.302;2022-09-09T13:10:20;1.10;;;1.00;;
58354;SDS011;44160;49.080;19.302;2022-09-09T13:12:57;3.53;;;0.90;;
58354;SDS011;44160;49.080;19.302;2022-09-09T13:15:24;1.10;;;0.80;;
58354;SDS011;44160;49.080;19.302;2022-09-09T13:17:58;2.05;;;1.13;;
58354;SDS011;44160;49.080;19.302;2022-09-09T13:20:25;2.92;;;1.15;;
58354;SDS011;44160;49.080;19.302;2022-09-09T13:22:56;1.83;;;1.10;;
58354;SDS011;44160;49.080;19.302;2022-09-09T13:25:24;1.48;;;1.10;;
58354;SDS011;44160;49.080;19.302;2022-09-09T13:30:27;1.48;;;1.13;;
58354;SDS011;44160;49.080;19.302;2022-09-09T13:33:01;1.48;;;1.10;;
58354;SDS011;44160;49.080;19.302;2022-09-09T13:35:27;2.17;;;1.25;;
58354;SDS011;44160;49.080;19.302;2022-09-09T13:37:53;1.58;;;1.17;;
58354;SDS011;44160;49.080;19.302;2022-09-09T13:40:20;1.83;;;1.27;;
58354;SDS011;44160;49.080;19.302;2022-09-09T13:42:56;1.58;;;1.10;;
58354;SDS011;44160;49.080;19.302;2022-09-09T13:45:26;1.85;;;1.23;;
58354;SDS011;44160;49.080;19.302;2022-09-09T13:47:55;2.20;;;1.27;;
58354;SDS011;44160;49.080;19.302;2022-09-09T13:52:48;1.33;;;1.02;;
58354;SDS011;44160;49.080;19.302;2022-09-09T13:55:16;2.47;;;1.67;;
58354;SDS011;44160;49.080;19.302;2022-09-09T14:00:25;1.20;;;1.02;;
58354;SDS011;44160;49.080;19.302;2022-09-09T14:02:51;0.90;;;0.88;;
58354;SDS011;44160;49.080;19.302;2022-09-09T14:05:19;3.17;;;1.23;;
58354;SDS011;44160;49.080;19.302;2022-09-09T14:07:47;2.53;;;1.38;;
58354;SDS011;44160;49.080;19.302;2022-09-09T14:10:13;1.40;;;1.20;;
58354;SDS011;44160;49.080;19.302;2022-09-09T14:12:39;1.10;;;1.00;;
58354;SDS011;44160;49.080;19.302;2022-09-09T14:15:06;1.85;;;1.10;;
58354;SDS011;44160;49.080;19.302;2022-09-09T14:17:32;2.40;;;0.95;;
58354;SDS011;44160;49.080;19.302;2022-09-09T14:20:01;1.38;;;1.10;;
58354;SDS011;44160;49.080;19.302;2022-09-09T14:22:27;2.20;;;1.27;;
58354;SDS011;44160;49.080;19.302;2022-09-09T14:24:53;2.40;;;1.30;;
58354;SDS011;44160;49.080;19.302;2022-09-09T14:27:19;3.08;;;1.30;;
58354;SDS011;44160;49.080;19.302;2022-09-09T14:29:45;2.60;;;1.65;;
58354;SDS011;44160;49.080;19.302;2022-09-09T14:32:11;1.63;;;1.30;;
58354;SDS011;44160;49.080;19.302;2022-09-09T14:34:37;1.52;;;1.23;;
58354;SDS011;44160;49.080;19.302;2022-09-09T14:37:04;3.47;;;1.63;;
58354;SDS011;44160;49.080;19.302;2022-09-09T14:39:30;2.30;;;1.77;;
58354;SDS011;44160;49.080;19.302;2022-09-09T14:41:56;1.50;;;1.10;;
58354;SDS011;44160;49.080;19.302;2022-09-09T14:44:23;1.52;;;0.98;;
58354;SDS011;44160;49.080;19.302;2022-09-09T14:46:49;3.58;;;1.52;;
58354;SDS011;44160;49.080;19.302;2022-09-09T14:49:19;2.10;;;1.58;;
58354;SDS011;44160;49.080;19.302;2022-09-09T14:51:45;2.70;;;1.63;;
58354;SDS011;44160;49.080;19.302;2022-09-09T14:54:13;2.05;;;1.35;;
58354;SDS011;44160;49.080;19.302;2022-09-09T14:56:40;1.33;;;1.15;;
58354;SDS011;44160;49.080;19.302;2022-09-09T14:59:06;2.15;;;1.15;;
58354;SDS011;44160;49.080;19.302;2022-09-09T15:01:35;2.78;;;1.45;;
58354;SDS011;44160;49.080;19.302;2022-09-09T15:04:02;1.60;;;1.30;;
58354;SDS011;44160;49.080;19.302;2022-09-09T15:06:30;2.03;;;1.20;;
58354;SDS011;44160;49.080;19.302;2022-09-09T15:08:58;3.22;;;1.70;;
58354;SDS011;44160;49.080;19.302;2022-09-09T15:11:26;1.63;;;1.23;;
58354;SDS011;44160;49.080;19.302;2022-09-09T15:13:53;2.42;;;1.00;;
58354;SDS011;44160;49.080;19.302;2022-09-09T15:16:19;1.90;;;1.23;;
58354;SDS011;44160;49.080;19.302;2022-09-09T15:18:46;1.77;;;1.45;;
58354;SDS011;44160;49.080;19.302;2022-09-09T15:21:13;1.95;;;1.17;;
58354;SDS011;44160;49.080;19.302;2022-09-09T15:23:39;4.38;;;1.17;;
58354;SDS011;44160;49.080;19.302;2022-09-09T15:26:06;1.77;;;1.17;;
58354;SDS011;44160;49.080;19.302;2022-09-09T15:28:33;1.58;;;1.25;;
58354;SDS011;44160;49.080;19.302;2022-09-09T15:31:06;2.28;;;1.38;;
58354;SDS011;44160;49.080;19.302;2022-09-09T15:33:33;1.70;;;1.40;;
58354;SDS011;44160;49.080;19.302;2022-09-09T15:36:11;1.90;;;1.30;;
58354;SDS011;44160;49.080;19.302;2022-09-09T15:38:37;1.15;;;1.02;;
58354;SDS011;44160;49.080;19.302;2022-09-09T15:41:03;1.60;;;1.20;;
58354;SDS011;44160;49.080;19.302;2022-09-09T15:43:29;3.63;;;1.30;;
58354;SDS011;44160;49.080;19.302;2022-09-09T15:45:56;1.48;;;1.20;;
58354;SDS011;44160;49.080;19.302;2022-09-09T15:48:33;2.17;;;1.30;;
58354;SDS011;44160;49.080;19.302;2022-09-09T15:51:02;2.63;;;1.10;;
58354;SDS011;44160;49.080;19.302;2022-09-09T15:53:29;1.52;;;1.35;;
58354;SDS011;44160;49.080;19.302;2022-09-09T15:55:57;1.60;;;1.30;;
58354;SDS011;44160;49.080;19.302;2022-09-09T15:58:23;2.00;;;1.58;;
58354;SDS011;44160;49.080;19.302;2022-09-09T16:00:52;4.38;;;1.50;;
58354;SDS011;44160;49.080;19.302;2022-09-09T16:03:18;1.58;;;1.27;;
58354;SDS011;44160;49.080;19.302;2022-09-09T16:05:44;2.05;;;1.38;;
58354;SDS011;44160;49.080;19.302;2022-09-09T16:08:40;1.45;;;1.30;;
58354;SDS011;44160;49.080;19.302;2022-09-09T16:11:29;2.30;;;1.48;;
58354;SDS011;44160;49.080;19.302;2022-09-09T16:13:56;2.05;;;1.65;;
58354;SDS011;44160;49.080;19.302;2022-09-09T16:16:23;7.22;;;3.00;;
58354;SDS011;44160;49.080;19.302;2022-09-09T16:18:53;8.63;;;2.47;;
58354;SDS011;44160;49.080;19.302;2022-09-09T16:23:45;5.90;;;3.35;;
58354;SDS011;44160;49.080;19.302;2022-09-09T16:26:12;8.32;;;4.65;;
58354;SDS011;44160;49.080;19.302;2022-09-09T16:28:39;6.78;;;3.78;;
58354;SDS011;44160;49.080;19.302;2022-09-09T16:31:06;6.95;;;4.63;;
58354;SDS011;44160;49.080;19.302;2022-09-09T16:33:32;7.32;;;4.30;;
58354;SDS011;44160;49.080;19.302;2022-09-09T16:36:04;15.90;;;9.00;;
58354;SDS011;44160;49.080;19.302;2022-09-09T16:38:30;11.95;;;8.82;;
58354;SDS011;44160;49.080;19.302;2022-09-09T16:40:59;5.80;;;3.75;;
58354;SDS011;44160;49.080;19.302;2022-09-09T16:43:25;7.30;;;3.10;;
58354;SDS011;44160;49.080;19.302;2022-09-09T16:45:51;4.38;;;2.45;;
58354;SDS011;44160;49.080;19.302;2022-09-09T16:48:17;3.88;;;1.80;;
58354;SDS011;44160;49.080;19.302;2022-09-09T16:50:50;4.55;;;1.85;;
58354;SDS011;44160;49.080;19.302;2022-09-09T16:53:17;2.78;;;1.92;;
58354;SDS011;44160;49.080;19.302;2022-09-09T16:55:43;6.07;;;2.15;;
58354;SDS011;44160;49.080;19.302;2022-09-09T16:58:12;5.82;;;2.13;;
58354;SDS011;44160;49.080;19.302;2022-09-09T17:00:38;2.67;;;2.08;;
58354;SDS011;44160;49.080;19.302;2022-09-09T17:03:04;3.63;;;2.05;;
58354;SDS011;44160;49.080;19.302;2022-09-09T17:05:30;5.65;;;2.08;;
58354;SDS011;44160;49.080;19.302;2022-09-09T17:07:57;2.10;;;1.73;;
58354;SDS011;44160;49.080;19.302;2022-09-09T17:10:24;2.78;;;1.95;;
58354;SDS011;44160;49.080;19.302;2022-09-09T17:12:50;2.13;;;1.73;;
58354;SDS011;44160;49.080;19.302;2022-09-09T17:15:16;3.88;;;2.28;;
58354;SDS011;44160;49.080;19.302;2022-09-09T17:17:44;5.13;;;1.77;;
58354;SDS011;44160;49.080;19.302;2022-09-09T17:20:14;3.43;;;2.10;;
58354;SDS011;44160;49.080;19.302;2022-09-09T17:22:41;4.88;;;2.47;;
58354;SDS011;44160;49.080;19.302;2022-09-09T17:25:07;2.70;;;1.95;;
58354;SDS011;44160;49.080;19.302;2022-09-09T17:27:33;5.95;;;3.08;;
58354;SDS011;44160;49.080;19.302;2022-09-09T17:29:59;4.25;;;2.08;;
58354;SDS011;44160;49.080;19.302;2022-09-09T17:32:25;5.57;;;2.15;;